Create Tblcommutelog Verified Points Advance Search
| # | Trip ID | Id Commuter | Trip Date | Trip Num | Current Lat | Current Lng | Delta Distance | Current Time | Activity | Activity Confidence | Current Speed | |
|---|---|---|---|---|---|---|---|---|---|---|---|---|
| 70121 | 251230_788741_16657443_1803 | 788741 | (not set) | (not set) | 39.110536301991 | -77.163910447321 | 11.849 | 2025-12-30 18:59:17 | in_vehicle | 100 | 3.1248044203242 | |
| 70122 | 251230_118321_1036641_1741 | 118321 | (not set) | (not set) | 38.758359250103 | -77.451601121919 | 32.3938 | 2025-12-30 19:01:31 | in_vehicle | 100 | 6.3479574776257 | |
| 70123 | 251230_789170_16657964_1820 | 789170 | (not set) | (not set) | 38.815146029228 | -77.065668442216 | 8.1196 | 2025-12-30 19:04:12 | in_vehicle | 100 | 4.6581490786521 | |
| 70124 | 251230_118321_1036641_1741 | 118321 | (not set) | (not set) | 38.750212451026 | -77.47338500995 | 33.7345 | 2025-12-30 19:06:04 | in_vehicle | 100 | 2.5794165243592 | |
| 70125 | 251230_731669_16595792_1751 | 731669 | (not set) | (not set) | 38.724561961923 | -77.537854965736 | 34.5354 | 2025-12-30 19:07:59 | in_vehicle | 100 | 8.2702262912729 | |
| 70126 | 251230_118321_1036641_1741 | 118321 | (not set) | (not set) | 38.743313442282 | -77.501953340286 | 35.362 | 2025-12-30 19:09:32 | in_vehicle | 100 | 6.043970781514 | |
| 70127 | 251230_731669_16595792_1751 | 731669 | (not set) | (not set) | 38.696530200702 | -77.534573890215 | 36.644 | 2025-12-30 19:11:02 | in_vehicle | 100 | 7.7069568249484 | |
| 70128 | 251230_753932_16620107_1834 | 753932 | (not set) | (not set) | 38.8575479 | -77.0497382 | 0.0424 | 2025-12-30 18:36:40 | still | 100 | 1.8328609618497 | |
| 70129 | 251230_753932_16620107_1834 | 753932 | (not set) | (not set) | 38.8851294 | -77.0058193 | 1.7626 | 2025-12-30 19:06:09 | still | 100 | -0.44703925898772 | |
| 70130 | 251230_789170_16657964_1820 | 789170 | (not set) | (not set) | 38.781215475806 | -77.104666755515 | 11.885 | 2025-12-30 19:13:55 | in_vehicle | 100 | 6.5759474997094 | |
| 70131 | 251230_118321_1036641_1741 | 118321 | (not set) | (not set) | 38.737134193254 | -77.534752283296 | 38.3119 | 2025-12-30 19:19:59 | in_vehicle | 100 | 8.229992757964 | |
| 70132 | 251230_118321_1036641_1741 | 118321 | (not set) | (not set) | 38.732773824865 | -77.578517078055 | 40.8179 | 2025-12-30 19:24:34 | in_vehicle | 100 | 5.2571816856956 | |
| 70133 | 251230_118321_1036641_1741 | 118321 | (not set) | (not set) | 38.753137748179 | -77.622033625737 | 43.707 | 2025-12-30 19:28:42 | in_vehicle | 100 | 8.8558477205468 | |
| 70134 | 251230_118321_1036641_1741 | 118321 | (not set) | (not set) | 38.757377435679 | -77.676702373831 | 46.8506 | 2025-12-30 19:32:44 | in_vehicle | 100 | 10.246139815999 | |
| 70135 | 251230_769783_16636848_1711 | 769783 | (not set) | (not set) | 38.876409488766 | -77.010872773898 | 9.6949 | 2025-12-30 19:36:15 | in_vehicle | 100 | 0 | |
| 70136 | 251230_118321_1036641_1741 | 118321 | (not set) | (not set) | 38.76430714137 | -77.728185312489 | 50.0752 | 2025-12-30 19:38:22 | in_vehicle | 100 | 10.675297504627 | |
| 70137 | 251230_769783_16636848_1711 | 769783 | (not set) | (not set) | 38.863221893735 | -76.999491837669 | 10.9272 | 2025-12-30 19:40:55 | in_vehicle | 100 | 8.0556474469588 | |
| 70138 | 251230_769783_16636848_1711 | 769783 | (not set) | (not set) | 38.853827543864 | -76.976744069037 | 12.6228 | 2025-12-30 19:43:09 | in_vehicle | 100 | 10.071794504993 | |
| 70139 | 251230_789039_16657803_1700 | 789039 | (not set) | (not set) | 38.891899 | -77.0122821 | 0.7026 | 2025-12-30 17:04:49 | still | 100 | 0.5900918218638 | |
| 70140 | 251230_789039_16657803_1700 | 789039 | (not set) | (not set) | 38.8908928 | -77.0246328 | 0.8106 | 2025-12-30 17:08:41 | still | 100 | -0.44703925898772 |